createdAt,value
2022-08-25T00:00:22.178Z,10.18
2022-08-25T00:02:55.477Z,10.15
2022-08-25T00:05:33.444Z,9.80
2022-08-25T00:08:03.504Z,9.02
2022-08-25T00:10:34.922Z,8.45
2022-08-25T00:13:04.791Z,8.40
2022-08-25T00:15:33.619Z,8.55
2022-08-25T00:18:03.017Z,8.50
2022-08-25T00:20:32.558Z,8.20
2022-08-25T00:23:02.921Z,8.20
2022-08-25T00:25:32.950Z,7.93
2022-08-25T00:28:06.451Z,8.05
2022-08-25T00:30:37.068Z,7.68
2022-08-25T00:33:05.828Z,6.93
2022-08-25T00:35:35.436Z,7.55
2022-08-25T00:38:04.204Z,7.72
2022-08-25T00:40:34.690Z,7.07
2022-08-25T00:43:03.931Z,6.93
2022-08-25T00:45:32.507Z,7.50
2022-08-25T00:48:01.351Z,7.53
2022-08-25T00:50:34.171Z,7.68
2022-08-25T00:53:06.848Z,7.47
2022-08-25T00:55:42.242Z,7.53
2022-08-25T00:58:17.362Z,6.80
2022-08-25T01:00:50.663Z,6.88
2022-08-25T01:03:21.280Z,7.18
2022-08-25T01:05:55.398Z,7.25
2022-08-25T01:08:29.167Z,7.10
2022-08-25T01:11:04.883Z,7.30
2022-08-25T01:13:40.472Z,6.85
2022-08-25T01:16:10.147Z,7.53
2022-08-25T01:18:49.340Z,6.60
2022-08-25T01:21:22.469Z,6.82
2022-08-25T01:23:52.692Z,7.57
2022-08-25T01:26:30.605Z,6.75
2022-08-25T01:29:20.942Z,6.80
2022-08-25T01:31:50.933Z,5.97
2022-08-25T01:34:22.717Z,6.35
2022-08-25T01:36:53.362Z,6.85
2022-08-25T01:39:22.896Z,6.60
2022-08-25T01:42:10.652Z,6.10
2022-08-25T01:44:43.526Z,6.45
2022-08-25T01:47:13.665Z,6.20
2022-08-25T01:49:42.216Z,5.93
2022-08-25T01:52:21.314Z,6.00
2022-08-25T01:54:50.356Z,6.88
2022-08-25T01:57:19.297Z,6.72
2022-08-25T01:59:48.125Z,6.70
2022-08-25T02:02:18.275Z,6.50
2022-08-25T02:04:48.229Z,6.25
2022-08-25T02:07:18.307Z,6.00
2022-08-25T02:09:47.241Z,7.18
2022-08-25T02:12:15.849Z,6.15
2022-08-25T02:14:44.546Z,6.00
2022-08-25T02:17:13.212Z,6.53
2022-08-25T02:19:41.873Z,6.32
2022-08-25T02:22:10.943Z,6.35
2022-08-25T02:24:40.932Z,5.68
2022-08-25T02:27:10.712Z,5.97
2022-08-25T02:29:39.958Z,6.00
2022-08-25T02:32:09.320Z,5.65
2022-08-25T02:34:41.230Z,6.80
2022-08-25T02:37:09.928Z,6.40
2022-08-25T02:39:38.479Z,5.88
2022-08-25T02:42:08.868Z,6.25
2022-08-25T02:44:37.514Z,7.00
2022-08-25T02:47:06.564Z,7.07
2022-08-25T02:49:35.374Z,6.22
2022-08-25T02:52:05.416Z,6.50
2022-08-25T02:54:34.215Z,6.15
2022-08-25T02:57:03.115Z,6.70
2022-08-25T02:59:33.185Z,6.95
2022-08-25T03:02:01.822Z,7.13
2022-08-25T03:04:31.975Z,6.47
2022-08-25T03:07:00.985Z,6.38
2022-08-25T03:09:29.562Z,6.57
2022-08-25T03:12:03.149Z,6.00
2022-08-25T03:14:33.322Z,7.75
2022-08-25T03:17:02.182Z,7.05
2022-08-25T03:19:31.145Z,6.93
2022-08-25T03:22:00.210Z,6.85
2022-08-25T03:24:29.603Z,6.97
2022-08-25T03:26:57.303Z,8.32
2022-08-25T03:29:28.858Z,7.40
2022-08-25T03:32:00.387Z,6.68
2022-08-25T03:34:31.660Z,6.80
2022-08-25T03:37:00.431Z,6.95
2022-08-25T03:39:29.258Z,8.10
2022-08-25T03:41:58.115Z,8.10
2022-08-25T03:44:26.828Z,8.23
2022-08-25T03:46:55.401Z,8.20
2022-08-25T03:49:25.869Z,8.68
2022-08-25T03:51:56.159Z,8.77
2022-08-25T03:54:27.105Z,9.07
2022-08-25T03:56:56.644Z,8.85
2022-08-25T03:59:27.144Z,10.00
2022-08-25T04:01:55.774Z,9.60
2022-08-25T04:04:26.053Z,8.90
2022-08-25T04:06:54.651Z,10.23
2022-08-25T04:09:23.415Z,10.40
2022-08-25T04:11:52.929Z,9.80
2022-08-25T04:14:23.692Z,9.90
2022-08-25T04:16:54.008Z,10.70
2022-08-25T04:19:23.468Z,11.15
2022-08-25T04:21:56.633Z,11.80
2022-08-25T04:24:25.528Z,11.63
2022-08-25T04:26:54.813Z,11.68
2022-08-25T04:29:25.962Z,11.05
2022-08-25T04:31:56.367Z,11.18
2022-08-25T04:34:30.365Z,11.73
2022-08-25T04:37:03.535Z,11.75
2022-08-25T04:39:32.753Z,12.32
2022-08-25T04:42:02.412Z,11.40
2022-08-25T04:44:32.080Z,11.63
2022-08-25T04:47:02.301Z,11.90
2022-08-25T04:49:31.752Z,12.15
2022-08-25T04:52:01.757Z,12.52
2022-08-25T04:54:32.537Z,11.50
2022-08-25T04:57:06.943Z,12.02
2022-08-25T04:59:35.641Z,11.05
2022-08-25T05:02:05.719Z,10.05
2022-08-25T05:04:37.563Z,10.45
2022-08-25T05:07:07.992Z,10.13
2022-08-25T05:09:37.827Z,9.70
2022-08-25T05:12:07.577Z,9.18
2022-08-25T05:14:36.232Z,10.85
2022-08-25T05:17:04.968Z,10.40
2022-08-25T05:19:33.929Z,9.63
2022-08-25T05:22:02.512Z,11.18
2022-08-25T05:24:32.472Z,9.80
2022-08-25T05:27:01.738Z,8.93
2022-08-25T05:29:30.389Z,9.50
2022-08-25T05:31:59.011Z,8.43
2022-08-25T05:34:27.738Z,9.23
2022-08-25T05:37:00.116Z,8.00
2022-08-25T05:39:32.456Z,9.52
2022-08-25T05:42:02.647Z,8.57
2022-08-25T05:44:31.485Z,9.18
2022-08-25T05:47:00.064Z,9.75
2022-08-25T05:49:28.941Z,8.18
2022-08-25T05:51:57.580Z,8.35
2022-08-25T05:54:27.019Z,8.25
2022-08-25T05:56:56.080Z,8.38
2022-08-25T05:59:26.278Z,7.28
2022-08-25T06:02:12.424Z,8.32
2022-08-25T06:04:41.433Z,8.73
2022-08-25T06:07:11.320Z,8.73
2022-08-25T06:09:40.380Z,8.48
2022-08-25T06:12:10.292Z,8.10
2022-08-25T06:14:40.414Z,8.15
2022-08-25T06:17:09.674Z,9.02
2022-08-25T06:19:38.488Z,7.05
2022-08-25T06:22:09.970Z,8.18
2022-08-25T06:24:38.543Z,9.63
2022-08-25T06:27:07.376Z,8.50
2022-08-25T06:29:36.078Z,7.28
2022-08-25T06:32:08.684Z,9.27
2022-08-25T06:34:37.498Z,9.35
2022-08-25T06:37:06.265Z,9.32
2022-08-25T06:39:34.988Z,7.70
2022-08-25T06:42:03.678Z,7.95
2022-08-25T06:44:32.439Z,8.68
2022-08-25T06:47:01.093Z,8.25
2022-08-25T06:49:35.591Z,8.43
2022-08-25T06:52:05.956Z,7.90
2022-08-25T06:54:34.656Z,7.30
2022-08-25T06:57:03.661Z,7.80
2022-08-25T06:59:32.813Z,7.68
2022-08-25T07:02:05.883Z,7.95
2022-08-25T07:04:37.656Z,7.70
2022-08-25T07:07:06.458Z,8.43
2022-08-25T07:09:39.041Z,7.97
2022-08-25T07:12:09.028Z,7.53
2022-08-25T07:14:39.071Z,7.90
2022-08-25T07:17:10.486Z,7.05
2022-08-25T07:19:42.717Z,6.95
2022-08-25T07:22:11.307Z,6.88
2022-08-25T07:24:39.977Z,7.13
2022-08-25T07:27:08.927Z,7.95
2022-08-25T07:29:42.601Z,7.45
2022-08-25T07:32:11.428Z,8.20
2022-08-25T07:34:58.981Z,7.38
2022-08-25T07:40:20.034Z,7.43
2022-08-25T07:42:50.364Z,7.50
2022-08-25T07:48:12.183Z,7.43
2022-08-25T07:50:47.047Z,7.50
2022-08-25T07:53:18.032Z,7.97
2022-08-25T07:55:47.209Z,7.60
2022-08-25T07:58:16.635Z,9.35
2022-08-25T08:00:49.678Z,8.77
2022-08-25T08:03:42.252Z,8.35
2022-08-25T08:06:13.951Z,8.90
2022-08-25T08:08:45.654Z,7.28
2022-08-25T08:11:18.384Z,8.50
2022-08-25T08:13:50.842Z,8.25
2022-08-25T08:16:24.180Z,8.75
2022-08-25T08:18:53.154Z,7.65
2022-08-25T08:21:27.400Z,7.72
2022-08-25T08:23:59.008Z,7.68
2022-08-25T08:26:48.155Z,7.72
2022-08-25T08:29:20.252Z,8.18
2022-08-25T08:31:51.231Z,8.02
2022-08-25T08:34:20.164Z,7.80
2022-08-25T08:36:55.061Z,8.18
2022-08-25T08:39:23.772Z,7.97
2022-08-25T08:42:22.240Z,8.27
2022-08-25T08:45:12.590Z,8.40
2022-08-25T08:47:56.442Z,7.95
2022-08-25T08:50:35.778Z,8.13
2022-08-25T08:53:12.919Z,7.97
2022-08-25T08:55:52.316Z,7.72
2022-08-25T08:58:27.248Z,8.50
2022-08-25T09:00:59.317Z,7.85
2022-08-25T09:03:39.766Z,8.07
2022-08-25T09:06:14.824Z,7.85
2022-08-25T09:08:46.096Z,6.72
2022-08-25T09:11:32.207Z,7.28
2022-08-25T09:14:30.308Z,7.32
2022-08-25T09:17:08.123Z,6.88
2022-08-25T09:20:18.219Z,8.13
2022-08-25T09:23:02.495Z,6.72
2022-08-25T09:25:52.419Z,7.38
2022-08-25T09:28:31.496Z,6.65
2022-08-25T09:31:04.237Z,7.05
2022-08-25T09:33:36.011Z,7.55
2022-08-25T09:36:06.091Z,7.45
2022-08-25T09:38:38.486Z,6.45
2022-08-25T09:41:11.397Z,6.72
2022-08-25T09:43:44.735Z,7.70
2022-08-25T09:46:20.929Z,7.43
2022-08-25T09:48:56.019Z,7.85
2022-08-25T09:51:42.563Z,7.38
2022-08-25T09:54:25.636Z,7.20
2022-08-25T09:57:08.615Z,7.72
2022-08-25T09:59:38.753Z,6.90
2022-08-25T10:02:26.477Z,10.68
2022-08-25T10:04:57.464Z,10.02
2022-08-25T10:07:32.328Z,9.38
2022-08-25T10:10:04.124Z,7.50
2022-08-25T10:12:51.500Z,7.57
2022-08-25T10:15:30.449Z,6.60
2022-08-25T10:18:25.611Z,6.43
2022-08-25T10:21:12.984Z,7.30
2022-08-25T10:23:49.381Z,6.18
2022-08-25T10:26:47.689Z,6.28
2022-08-25T10:29:40.820Z,6.10
2022-08-25T10:32:23.590Z,6.28
2022-08-25T10:34:57.191Z,6.68
2022-08-25T10:37:40.178Z,5.85
2022-08-25T10:40:21.768Z,6.07
2022-08-25T10:43:07.908Z,6.18
2022-08-25T10:45:48.597Z,5.53
2022-08-25T10:48:47.740Z,5.53
2022-08-25T10:51:39.650Z,5.65
2022-08-25T10:54:30.864Z,6.05
2022-08-25T10:57:14.127Z,5.90
2022-08-25T11:00:08.708Z,5.07
2022-08-25T11:03:22.037Z,5.40
2022-08-25T11:06:01.631Z,5.50
2022-08-25T11:08:38.851Z,5.70
2022-08-25T11:11:21.552Z,5.50
2022-08-25T11:13:57.415Z,5.35
2022-08-25T11:16:39.728Z,5.80
2022-08-25T11:19:20.232Z,4.85
2022-08-25T11:22:02.922Z,5.32
2022-08-25T11:24:49.998Z,5.63
2022-08-25T11:27:24.519Z,4.65
2022-08-25T11:30:05.953Z,4.65
2022-08-25T11:32:36.931Z,6.10
2022-08-25T11:35:12.689Z,6.35
2022-08-25T11:38:00.384Z,5.60
2022-08-25T11:40:44.475Z,4.32
2022-08-25T11:43:40.805Z,4.45
2022-08-25T11:46:33.774Z,4.50
2022-08-25T11:49:36.411Z,6.85
2022-08-25T11:52:15.193Z,5.10
2022-08-25T11:54:46.485Z,5.60
2022-08-25T11:57:25.841Z,4.88
2022-08-25T12:00:10.764Z,4.72
2022-08-25T12:02:43.723Z,4.40
2022-08-25T12:05:47.322Z,4.57
2022-08-25T12:08:52.622Z,4.85
2022-08-25T12:11:54.708Z,5.40
2022-08-25T12:14:46.963Z,4.07
2022-08-25T12:17:25.518Z,10.98
2022-08-25T12:19:59.546Z,4.90
2022-08-25T12:23:00.152Z,4.95
2022-08-25T12:25:47.145Z,4.57
2022-08-25T12:28:49.146Z,21.05
2022-08-25T12:32:04.596Z,9.13
2022-08-25T12:35:29.489Z,4.80
2022-08-25T12:38:09.073Z,4.43
2022-08-25T12:40:58.551Z,4.32
2022-08-25T12:43:33.287Z,6.63
2022-08-25T12:46:39.589Z,4.85
2022-08-25T12:49:32.294Z,4.40
2022-08-25T12:52:08.327Z,5.15
2022-08-25T12:54:49.824Z,6.28
2022-08-25T12:57:42.580Z,4.80
2022-08-25T13:00:22.445Z,4.32
2022-08-25T13:03:24.870Z,4.47
2022-08-25T13:06:26.752Z,4.95
2022-08-25T13:09:46.457Z,5.15
2022-08-25T13:12:22.583Z,4.65
2022-08-25T13:14:57.599Z,4.65
2022-08-25T13:17:33.870Z,4.70
2022-08-25T13:20:25.737Z,4.43
2022-08-25T13:23:04.051Z,4.50
2022-08-25T13:25:34.709Z,4.68
2022-08-25T13:28:11.085Z,3.97
2022-08-25T13:30:41.736Z,5.50
2022-08-25T13:33:22.352Z,4.38
2022-08-25T13:36:15.243Z,4.07
2022-08-25T13:38:46.703Z,4.43
2022-08-25T13:41:29.477Z,4.30
2022-08-25T13:44:02.530Z,4.43
2022-08-25T13:46:35.563Z,3.83
2022-08-25T13:49:07.149Z,4.15
2022-08-25T13:51:39.263Z,4.10
2022-08-25T13:54:24.677Z,4.07
2022-08-25T13:56:54.711Z,3.97
2022-08-25T13:59:28.051Z,3.78
2022-08-25T14:01:59.831Z,3.90
2022-08-25T14:04:33.637Z,3.53
2022-08-25T14:07:26.191Z,3.83
2022-08-25T14:09:58.461Z,4.05
2022-08-25T14:12:37.668Z,4.03
2022-08-25T14:15:27.260Z,3.97
2022-08-25T14:18:07.392Z,4.28
2022-08-25T14:20:38.971Z,4.38
2022-08-25T14:23:19.047Z,3.63
2022-08-25T14:25:48.795Z,3.58
2022-08-25T14:28:22.799Z,3.53
2022-08-25T14:30:55.654Z,4.15
2022-08-25T14:33:34.178Z,3.85
2022-08-25T14:36:05.377Z,4.60
2022-08-25T14:38:36.954Z,3.85
2022-08-25T14:43:37.203Z,4.22
2022-08-25T14:46:17.637Z,3.95
2022-08-25T14:48:55.493Z,3.63
2022-08-25T14:51:26.333Z,4.47
2022-08-25T14:54:04.880Z,4.95
2022-08-25T14:56:35.223Z,4.68
2022-08-25T14:59:05.298Z,3.90
2022-08-25T15:01:34.066Z,3.60
2022-08-25T15:04:10.546Z,3.85
2022-08-25T15:06:43.628Z,3.72
2022-08-25T15:09:16.502Z,3.15
2022-08-25T15:11:50.681Z,4.25
2022-08-25T15:14:28.801Z,8.02
2022-08-25T15:17:03.478Z,4.53
2022-08-25T15:19:34.369Z,3.53
2022-08-25T15:22:02.955Z,4.20
2022-08-25T15:24:36.098Z,3.90
2022-08-25T15:27:10.042Z,4.25
2022-08-25T15:29:40.448Z,4.88
2022-08-25T15:32:10.488Z,4.38
2022-08-25T15:34:40.546Z,3.58
2022-08-25T15:37:13.124Z,5.40
2022-08-25T15:39:44.597Z,4.18
2022-08-25T15:42:14.145Z,3.78
2022-08-25T15:44:52.933Z,3.60
2022-08-25T15:47:22.535Z,3.75
2022-08-25T15:50:03.738Z,3.80
2022-08-25T15:52:44.573Z,3.70
2022-08-25T15:55:15.660Z,4.03
2022-08-25T15:57:44.903Z,4.15
2022-08-25T16:00:16.755Z,4.65
2022-08-25T16:02:46.608Z,4.15
2022-08-25T16:05:16.981Z,4.03
2022-08-25T16:07:51.543Z,3.60
2022-08-25T16:10:21.237Z,3.90
2022-08-25T16:12:50.638Z,5.30
2022-08-25T16:15:23.942Z,5.63
2022-08-25T16:17:59.812Z,4.30
2022-08-25T16:20:30.829Z,4.40
2022-08-25T16:23:02.507Z,5.10
2022-08-25T16:25:32.843Z,4.60
2022-08-25T16:28:05.516Z,4.50
2022-08-25T16:30:34.257Z,6.18
2022-08-25T16:33:03.702Z,5.38
2022-08-25T16:35:36.576Z,6.45
2022-08-25T16:38:09.318Z,4.97
2022-08-25T16:40:43.349Z,4.40
2022-08-25T16:43:13.475Z,4.07
2022-08-25T16:45:42.128Z,4.50
2022-08-25T16:48:10.803Z,4.30
2022-08-25T16:50:41.938Z,3.72
2022-08-25T16:53:27.763Z,4.03
2022-08-25T16:56:02.831Z,3.90
2022-08-25T16:58:33.204Z,4.60
2022-08-25T17:01:10.099Z,4.28
2022-08-25T17:03:44.131Z,4.47
2022-08-25T17:06:15.169Z,4.72
2022-08-25T17:08:44.145Z,8.73
2022-08-25T17:11:17.145Z,7.53
2022-08-25T17:13:50.327Z,6.95
2022-08-25T17:16:22.310Z,8.65
2022-08-25T17:18:51.021Z,5.10
2022-08-25T17:21:24.451Z,6.28
2022-08-25T17:23:55.676Z,5.85
2022-08-25T17:26:27.967Z,4.90
2022-08-25T17:28:59.330Z,4.95
2022-08-25T17:31:30.863Z,4.75
2022-08-25T17:33:59.923Z,4.72
2022-08-25T17:36:31.459Z,4.57
2022-08-25T17:39:00.491Z,4.85
2022-08-25T17:41:29.103Z,4.75
2022-08-25T17:43:58.793Z,5.00
2022-08-25T17:46:28.384Z,4.65
2022-08-25T17:48:57.638Z,4.70
2022-08-25T17:51:27.239Z,4.60
2022-08-25T17:54:01.839Z,6.18
2022-08-25T17:56:32.460Z,7.20
2022-08-25T17:59:02.115Z,6.57
2022-08-25T18:01:33.841Z,6.57
2022-08-25T18:04:02.657Z,5.70
2022-08-25T18:06:34.066Z,5.60
2022-08-25T18:09:06.211Z,5.43
2022-08-25T18:11:34.790Z,5.10
2022-08-25T18:14:03.585Z,5.47
2022-08-25T18:16:33.702Z,5.20
2022-08-25T18:19:03.025Z,5.80
2022-08-25T18:21:35.465Z,5.43
2022-08-25T18:24:06.256Z,4.68
2022-08-25T18:26:35.606Z,5.43
2022-08-25T18:29:05.147Z,5.32
2022-08-25T18:31:33.933Z,4.80
2022-08-25T18:34:05.162Z,5.10
2022-08-25T18:36:38.749Z,5.25
2022-08-25T18:39:30.453Z,5.05
2022-08-25T18:42:02.353Z,6.10
2022-08-25T18:44:31.742Z,6.45
2022-08-25T18:47:00.379Z,5.28
2022-08-25T18:49:37.221Z,6.93
2022-08-25T18:52:07.512Z,5.47
2022-08-25T18:54:39.195Z,5.97
2022-08-25T18:57:09.335Z,5.82
2022-08-25T18:59:38.247Z,5.20
2022-08-25T19:02:10.005Z,5.45
2022-08-25T19:04:41.920Z,5.15
2022-08-25T19:07:12.216Z,5.50
2022-08-25T19:09:42.853Z,5.50
2022-08-25T19:12:22.077Z,5.40
2022-08-25T19:14:51.245Z,5.38
2022-08-25T19:17:19.991Z,5.60
2022-08-25T19:19:53.499Z,6.40
2022-08-25T19:22:40.547Z,5.82
2022-08-25T19:25:13.162Z,5.72
2022-08-25T19:27:43.507Z,5.40
2022-08-25T19:30:16.179Z,8.30
2022-08-25T19:32:46.617Z,6.70
2022-08-25T19:35:30.401Z,6.10
2022-08-25T19:38:02.442Z,6.07
2022-08-25T19:40:38.980Z,5.35
2022-08-25T19:43:08.787Z,5.72
2022-08-25T19:45:38.426Z,5.53
2022-08-25T19:48:08.720Z,5.47
2022-08-25T19:50:38.404Z,5.68
2022-08-25T19:53:09.339Z,5.28
2022-08-25T19:55:43.953Z,6.45
2022-08-25T19:58:13.504Z,7.30
2022-08-25T20:00:42.376Z,7.30
2022-08-25T20:03:11.118Z,7.03
2022-08-25T20:05:40.278Z,6.18
2022-08-25T20:08:09.136Z,6.35
2022-08-25T20:10:41.782Z,6.35
2022-08-25T20:13:12.436Z,6.22
2022-08-25T20:15:41.903Z,6.25
2022-08-25T20:18:10.688Z,6.50
2022-08-25T20:20:39.468Z,6.25
2022-08-25T20:23:25.981Z,6.00
2022-08-25T20:25:56.662Z,7.30
2022-08-25T20:28:26.723Z,6.15
2022-08-25T20:30:56.586Z,6.30
2022-08-25T20:33:25.336Z,6.25
2022-08-25T20:35:54.055Z,6.38
2022-08-25T20:38:24.645Z,6.63
2022-08-25T20:40:54.730Z,6.72
2022-08-25T20:43:23.408Z,6.25
2022-08-25T20:46:01.582Z,6.70
2022-08-25T20:48:30.324Z,6.00
2022-08-25T20:50:59.165Z,5.45
2022-08-25T20:53:28.052Z,6.85
2022-08-25T20:55:57.345Z,6.18
2022-08-25T20:58:26.505Z,5.95
2022-08-25T21:00:57.003Z,6.07
2022-08-25T21:03:25.599Z,6.13
2022-08-25T21:05:54.386Z,6.00
2022-08-25T21:08:23.634Z,7.10
2022-08-25T21:10:52.582Z,6.70
2022-08-25T21:13:21.312Z,6.32
2022-08-25T21:15:51.472Z,5.70
2022-08-25T21:18:21.756Z,5.78
2022-08-25T21:20:50.421Z,6.00
2022-08-25T21:23:21.257Z,5.75
2022-08-25T21:25:50.043Z,6.05
2022-08-25T21:28:19.685Z,5.90
2022-08-25T21:30:50.122Z,5.90
2022-08-25T21:33:20.273Z,6.05
2022-08-25T21:35:55.003Z,6.32
2022-08-25T21:38:23.838Z,6.25
2022-08-25T21:40:52.515Z,6.35
2022-08-25T21:43:21.145Z,6.75
2022-08-25T21:45:49.846Z,6.10
2022-08-25T21:48:18.616Z,6.18
2022-08-25T21:50:48.790Z,5.95
2022-08-25T21:53:17.375Z,6.25
2022-08-25T21:55:45.966Z,6.47
2022-08-25T21:58:14.648Z,6.40
2022-08-25T22:00:44.753Z,6.97
2022-08-25T22:03:13.379Z,7.05
2022-08-25T22:05:42.036Z,6.97
2022-08-25T22:08:16.734Z,6.68
2022-08-25T22:10:48.163Z,6.80
2022-08-25T22:13:16.861Z,6.60
2022-08-25T22:15:47.108Z,6.80
2022-08-25T22:18:21.069Z,6.90
2022-08-25T22:20:50.524Z,7.00
2022-08-25T22:23:21.202Z,6.95
2022-08-25T22:25:49.929Z,6.70
2022-08-25T22:28:19.631Z,6.85
2022-08-25T22:30:48.926Z,6.53
2022-08-25T22:33:17.984Z,6.70
2022-08-25T22:35:47.395Z,7.43
2022-08-25T22:38:15.956Z,6.97
2022-08-25T22:40:47.196Z,6.70
2022-08-25T22:43:16.052Z,7.40
2022-08-25T22:45:44.863Z,7.07
2022-08-25T22:48:13.515Z,6.72
2022-08-25T22:50:42.145Z,7.45
2022-08-25T22:53:10.951Z,7.13
2022-08-25T22:55:44.587Z,7.57
2022-08-25T22:58:16.495Z,7.30
2022-08-25T23:00:45.042Z,6.93
2022-08-25T23:03:15.354Z,7.40
2022-08-25T23:05:44.056Z,7.40
2022-08-25T23:08:13.766Z,7.13
2022-08-25T23:10:50.185Z,6.85
2022-08-25T23:13:34.594Z,7.65
2022-08-25T23:16:06.984Z,7.15
2022-08-25T23:18:43.063Z,6.38
2022-08-25T23:21:35.036Z,6.70
2022-08-25T23:24:07.778Z,7.00
2022-08-25T23:26:37.334Z,6.88
2022-08-25T23:29:17.745Z,6.22
2022-08-25T23:31:49.170Z,5.85
2022-08-25T23:34:18.311Z,5.72
2022-08-25T23:36:47.498Z,5.75
2022-08-25T23:39:16.098Z,5.40
2022-08-25T23:41:44.779Z,5.70
2022-08-25T23:44:17.186Z,4.97
2022-08-25T23:46:47.109Z,5.75
2022-08-25T23:49:18.196Z,5.03
2022-08-25T23:51:48.815Z,5.05
2022-08-25T23:54:20.122Z,5.97
2022-08-25T23:56:51.624Z,5.38
2022-08-25T23:59:24.520Z,5.50
